Airfield :
LOGIN :

Register | Disclaimer

   EN    FR    IT 

 










Legend :    VFR   Marginal VFR   IFR   Intensive IFR   Very Intensive IFR
Visi :
Ceiling :
>= 8 km
>= 3000ft
5 to 8 km
1000 to 3000 ft
1500m to 5 km
500 to 1000 ft
800 to 1500m
200 to 500 ft
< 800m
< 200 ft
Symbols :   Thunderstorms  Fog  Heavy snow  Heavy precipitations  Wind > 20 kt
SIGMETs :     Misc.  Thunderstorms  Icing  Turbulence  Mountain Waves  Volcanic Ashes






- Airport Elevation : 876 ft
- IATA code : MBX


LJMB - Maribor

CURRENT METAR :
  • 020330Z AUTO 07002KT 3700 DZ BR FEW009/// OVC030/// 02/02 Q1021

EXPIRED METARs :
  • 020300Z AUTO 07001KT 5000 DZ FEW008/// BKN011/// OVC032/// 02/02 Q1021
  • 020230Z AUTO 05002KT 7000 FEW008/// BKN032/// BKN087/// 03/02 Q1021
  • 020200Z AUTO 04002KT 6000 NSC 03/02 Q1021
  • 020130Z AUTO 07002KT 8000 SCT031/// BKN110/// 03/02 Q1021
  • 020100Z AUTO 02002KT 8000 SCT030/// BKN045/// BKN090/// 03/02 Q1021
  • 020030Z AUTO 02002KT 8000 SCT024/// SCT033/// OVC044/// 03/02 Q1021

TAF TAF LJMB
Valid from the 02 at 00:00 until the 03 at 00:00 UTC


012300Z 0200/0300 01005KT 7000 SCT015 OVC040
PROB40
TEMPO 0200/0212 3500 -RASN BR OVC010



MET'MAP, your aeronautical weather chart ! - Copyright ORBIFLY December 2007 - Disclaimer

ORBIFLY MET'MAP TEAM :

Programming & Development : Alexandra Zaïnal
Original concept : Baudouin d'Aumeries
Technical & hardware support : Manuel Goepfert
Assistance : Marc-Olivier Méhu




SOURCES & CREDITS :

   NOAA